Time;durP1;ratioP1;P1;durP2;ratioP2;P2;SDS_P1;SDS_P2;PMS_P1;PMS_P2;Temp;Humidity;BMP_temperature;BMP_pressure;BME280_temperature;BME280_humidity;BME280_pressure;Samples;Min_cycle;Max_cycle;Signal;HPM_P1;HPM_P2
2024/04/25 00:02:01;;;;;;;7.15;4.93;;;5.90;99.90;;;;;;5338891;26;20579;-80
2024/04/25 00:04:27;;;;;;;6.50;5.55;;;5.80;99.90;;;;;;5333485;26;20468;-80
2024/04/25 00:06:53;;;;;;;6.68;5.57;;;5.70;99.90;;;;;;5335418;26;20356;-80
2024/04/25 00:09:19;;;;;;;6.47;5.55;;;5.80;99.90;;;;;;5337824;26;20025;-80
2024/04/25 00:11:55;;;;;;;6.78;4.95;;;5.80;99.90;;;;;;5336830;26;20009;-80
2024/04/25 00:14:21;;;;;;;5.55;4.45;;;5.70;99.90;;;;;;5337981;26;20754;-80
2024/04/25 00:16:47;;;;;;;6.28;5.22;;;5.70;99.90;;;;;;5333581;26;20024;-80
2024/04/25 00:19:14;;;;;;;6.57;5.38;;;5.70;99.90;;;;;;5335462;26;20005;-80
2024/04/25 00:21:42;;;;;;;6.88;4.85;;;5.70;99.90;;;;;;5334116;26;20589;-79
2024/04/25 00:24:08;;;;;;;6.95;4.78;;;5.70;99.90;;;;;;5336085;26;20079;-79
2024/04/25 00:26:34;;;;;;;5.53;4.18;;;5.60;99.90;;;;;;5336674;26;20428;-79
2024/04/25 00:29:00;;;;;;;5.75;4.15;;;5.60;99.90;;;;;;5336200;26;20352;-79
2024/04/25 00:31:29;;;;;;;5.07;3.60;;;5.60;99.90;;;;;;5330581;26;20029;-78
2024/04/25 00:33:55;;;;;;;4.10;3.10;;;5.60;99.90;;;;;;5336948;26;20023;-79
2024/04/25 00:36:21;;;;;;;4.65;3.00;;;5.50;99.90;;;;;;5330713;26;20013;-79
2024/04/25 00:38:47;;;;;;;4.45;2.72;;;5.50;99.90;;;;;;5336993;26;20009;-79
2024/04/25 00:41:13;;;;;;;3.90;2.78;;;5.50;99.90;;;;;;5331757;26;20023;-79
2024/04/25 00:43:39;;;;;;;6.47;2.80;;;5.50;99.90;;;;;;5328973;26;19997;-79
2024/04/25 00:46:05;;;;;;;7.78;2.97;;;5.70;99.90;;;;;;5337614;26;20056;-79
2024/04/25 00:48:32;;;;;;;7.05;2.67;;;5.50;99.90;;;;;;5334255;26;20075;-79
2024/04/25 00:51:01;;;;;;;5.13;2.60;;;5.50;99.90;;;;;;5329922;26;20025;-79
2024/04/25 00:53:29;;;;;;;8.80;2.60;;;5.50;99.90;;;;;;5332476;26;20009;-79
2024/04/25 00:55:56;;;;;;;5.70;2.55;;;5.50;99.90;;;;;;5336841;26;20041;-78
2024/04/25 00:58:23;;;;;;;7.22;3.67;;;5.50;99.90;;;;;;5331029;26;20013;-79
2024/04/25 01:00:49;;;;;;;5.88;3.10;;;5.50;99.90;;;;;;5336711;26;20012;-79
2024/04/25 01:03:17;;;;;;;6.88;3.03;;;5.50;99.90;;;;;;5332912;26;20001;-79
2024/04/25 01:05:44;;;;;;;5.13;2.33;;;5.50;99.90;;;;;;5332821;26;20418;-79
2024/04/25 01:08:12;;;;;;;6.18;2.55;;;5.50;99.90;;;;;;5325476;26;19997;-79
2024/04/25 01:10:38;;;;;;;4.30;2.33;;;5.40;99.90;;;;;;5334577;26;20001;-79
2024/04/25 01:13:04;;;;;;;7.80;2.13;;;5.50;99.90;;;;;;5334956;26;20025;-78
2024/04/25 01:15:30;;;;;;;6.05;2.08;;;5.40;99.90;;;;;;5336129;26;20009;-79
2024/04/25 01:18:00;;;;;;;4.68;2.08;;;5.40;99.90;;;;;;5336984;26;20485;-79
2024/04/25 01:20:26;;;;;;;4.90;2.10;;;5.40;99.90;;;;;;5332324;26;20797;-78
2024/04/25 01:22:54;;;;;;;6.43;2.10;;;5.40;99.90;;;;;;5332835;26;20017;-79
2024/04/25 01:25:21;;;;;;;5.53;2.30;;;5.40;99.90;;;;;;5338377;26;20082;-80
2024/04/25 01:27:48;;;;;;;6.35;2.35;;;5.50;99.90;;;;;;5336630;26;20020;-79
2024/04/25 01:30:15;;;;;;;7.45;2.65;;;5.40;99.90;;;;;;5335199;26;20063;-79
2024/04/25 01:32:42;;;;;;;6.57;2.50;;;5.40;99.90;;;;;;5337536;26;20546;-79
2024/04/25 01:35:09;;;;;;;7.72;3.10;;;5.40;99.90;;;;;;5336618;26;20060;-80
2024/04/25 01:37:35;;;;;;;6.90;2.65;;;5.40;99.90;;;;;;5331078;26;20036;-79
2024/04/25 01:40:01;;;;;;;5.85;2.35;;;5.40;99.90;;;;;;5328380;26;20128;-79
2024/04/25 01:42:28;;;;;;;9.45;2.55;;;5.40;99.90;;;;;;5336059;26;20056;-80
2024/04/25 01:44:54;;;;;;;9.60;2.75;;;5.40;99.90;;;;;;5329952;26;20468;-79
2024/04/25 01:47:19;;;;;;;6.25;2.25;;;5.40;99.90;;;;;;5333223;26;20425;-78
2024/04/25 01:49:45;;;;;;;9.80;2.55;;;5.30;99.90;;;;;;5336401;26;20020;-79
2024/04/25 01:52:11;;;;;;;11.60;3.10;;;5.40;99.90;;;;;;5331346;26;20020;-79
2024/04/25 01:54:37;;;;;;;11.10;2.78;;;5.30;99.90;;;;;;5324692;26;20004;-78
2024/04/25 01:57:03;;;;;;;8.70;2.35;;;5.20;99.90;;;;;;5333805;26;20011;-79
2024/04/25 01:59:29;;;;;;;9.13;2.28;;;5.30;99.90;;;;;;5330080;26;20011;-79
2024/04/25 02:01:55;;;;;;;6.22;2.10;;;5.20;99.90;;;;;;5331903;26;20019;-79
2024/04/25 02:04:41;;;;;;;7.22;1.95;;;5.30;99.90;;;;;;5330908;26;20023;-79
2024/04/25 02:07:10;;;;;;;8.25;2.63;;;5.30;99.90;;;;;;5336774;26;20009;-79
2024/04/25 02:09:37;;;;;;;10.15;2.42;;;5.30;99.90;;;;;;5333565;26;20021;-79
2024/04/25 02:12:03;;;;;;;11.15;2.63;;;5.30;99.90;;;;;;5335403;26;20009;-79
2024/04/25 02:14:29;;;;;;;8.60;2.63;;;5.30;99.90;;;;;;5331779;26;20005;-79
2024/04/25 02:16:54;;;;;;;8.07;2.60;;;5.20;99.90;;;;;;5334891;26;20107;-79
2024/04/25 02:19:20;;;;;;;15.30;2.65;;;5.30;99.90;;;;;;5334111;26;20467;-79
2024/04/25 02:27:16;;;;;;;7.68;2.25;;;5.30;99.90;;;;;;5336604;26;20044;-79
2024/04/25 02:29:42;;;;;;;10.10;2.70;;;5.30;99.90;;;;;;5334803;26;20020;-79
2024/04/25 02:32:08;;;;;;;10.80;2.40;;;5.30;99.90;;;;;;5332906;26;20375;-79
2024/04/25 02:34:34;;;;;;;15.30;3.83;;;5.20;99.90;;;;;;5388395;26;20025;-79
2024/04/25 02:37:00;;;;;;;11.43;2.70;;;5.30;99.90;;;;;;5331570;26;20078;-78
2024/04/25 02:39:26;;;;;;;12.23;2.55;;;5.30;99.90;;;;;;5333529;26;20414;-78
2024/04/25 02:41:52;;;;;;;10.52;2.47;;;5.20;99.90;;;;;;5330889;26;20009;-79
2024/04/25 02:44:18;;;;;;;9.02;2.00;;;5.20;99.90;;;;;;5331126;26;20083;-79
2024/04/25 02:46:44;;;;;;;9.60;2.10;;;5.20;99.90;;;;;;5322639;26;20021;-79
2024/04/25 02:49:10;;;;;;;10.13;2.63;;;5.30;99.90;;;;;;5329462;26;20007;-78
2024/04/25 02:51:36;;;;;;;10.75;1.98;;;5.30;99.90;;;;;;5339540;26;20419;-79
2024/04/25 02:54:10;;;;;;;8.88;2.42;;;5.30;99.90;;;;;;5330987;26;20092;-79
2024/04/25 02:56:36;;;;;;;10.35;2.10;;;5.20;99.90;;;;;;5327091;26;20024;-79
2024/04/25 02:59:02;;;;;;;9.00;2.05;;;5.20;99.90;;;;;;5332730;26;20024;-79
2024/04/25 03:01:28;;;;;;;8.43;1.98;;;5.20;99.90;;;;;;5333488;26;20389;-79
2024/04/25 03:03:54;;;;;;;4.50;1.65;;;5.20;99.90;;;;;;5337928;26;20012;-79
2024/04/25 03:06:40;;;;;;;6.63;2.10;;;5.10;99.90;;;;;;5307899;26;20009;-79
2024/04/25 03:09:08;;;;;;;5.50;1.63;;;5.20;99.90;;;;;;5386242;26;20001;-79
2024/04/25 03:11:55;;;;;;;9.20;2.38;;;5.20;99.90;;;;;;5311561;26;20020;-79
2024/04/25 03:14:29;;;;;;;5.68;1.70;;;5.20;99.90;;;;;;5328006;26;20008;-79
2024/04/25 03:16:56;;;;;;;6.80;2.08;;;5.10;99.90;;;;;;5336294;26;20611;-79
2024/04/25 03:19:22;;;;;;;7.93;2.20;;;5.10;99.90;;;;;;5332832;26;20410;-79
2024/04/25 03:21:49;;;;;;;7.60;1.73;;;5.10;99.90;;;;;;5336014;26;20005;-79
2024/04/25 03:24:15;;;;;;;7.45;1.73;;;5.10;99.90;;;;;;5330576;26;20478;-79
2024/04/25 03:26:41;;;;;;;9.90;2.03;;;5.10;99.90;;;;;;5333994;26;20008;-78
2024/04/25 03:29:16;;;;;;;10.05;2.13;;;5.20;99.90;;;;;;5330984;26;20087;-79
2024/04/25 03:32:02;;;;;;;9.20;2.40;;;5.20;99.90;;;;;;5376287;26;19997;-79
2024/04/25 03:34:28;;;;;;;9.80;2.55;;;5.10;99.90;;;;;;5332163;26;20086;-79
2024/04/25 03:36:57;;;;;;;6.85;2.33;;;5.10;99.90;;;;;;5330076;26;20095;-79
2024/04/25 03:39:43;;;;;;;8.82;2.35;;;5.10;99.90;;;;;;5307734;26;20005;-79
2024/04/25 03:42:09;;;;;;;8.63;2.00;;;5.10;99.90;;;;;;5332574;26;20450;-79
2024/04/25 03:44:55;;;;;;;10.45;2.45;;;5.00;99.90;;;;;;5309571;26;20461;-79
2024/04/25 03:47:21;;;;;;;10.10;2.30;;;5.00;99.90;;;;;;5334364;26;20076;-79
2024/04/25 03:49:50;;;;;;;9.40;2.80;;;5.10;99.90;;;;;;5327857;26;20082;-79
2024/04/25 03:52:16;;;;;;;11.10;2.60;;;4.90;99.90;;;;;;5333939;26;20044;-79
2024/04/25 03:54:41;;;;;;;8.70;1.75;;;4.80;99.90;;;;;;5333912;26;20826;-79
2024/04/25 03:57:27;;;;;;;7.70;2.33;;;4.90;99.90;;;;;;5335756;26;20011;-79
2024/04/25 03:59:53;;;;;;;9.48;2.05;;;4.90;99.90;;;;;;5329522;26;20352;-79
2024/04/25 04:02:19;;;;;;;7.50;1.95;;;4.80;99.90;;;;;;5329430;26;20528;-80
2024/04/25 04:05:05;;;;;;;8.13;1.80;;;4.70;99.90;;;;;;5309198;26;20095;-79
2024/04/25 04:07:31;;;;;;;7.50;2.40;;;4.70;99.90;;;;;;5331982;26;20017;-79
2024/04/25 04:09:56;;;;;;;10.60;1.80;;;4.70;99.90;;;;;;5320190;26;20008;-79
2024/04/25 04:12:31;;;;;;;10.07;2.10;;;4.70;99.90;;;;;;5331472;26;20008;-79
2024/04/25 04:14:57;;;;;;;6.65;1.77;;;4.70;99.90;;;;;;5328858;26;20520;-79
2024/04/25 04:17:44;;;;;;;8.00;1.90;;;4.60;99.90;;;;;;5385725;26;20005;-79
2024/04/25 04:20:10;;;;;;;9.50;2.20;;;4.60;99.90;;;;;;5333373;26;20017;-79
2024/04/25 04:22:36;;;;;;;9.60;2.60;;;4.60;99.90;;;;;;5324564;26;20004;-79
2024/04/25 04:25:04;;;;;;;5.30;1.63;;;4.50;99.90;;;;;;5337773;26;20069;-79
2024/04/25 04:27:30;;;;;;;10.98;2.15;;;4.50;99.90;;;;;;5331380;26;20016;-79
2024/04/25 04:29:56;;;;;;;10.45;2.25;;;4.40;99.90;;;;;;5337251;26;20437;-79
2024/04/25 04:32:25;;;;;;;6.38;1.60;;;4.50;99.90;;;;;;5330146;26;20009;-80
2024/04/25 04:34:51;;;;;;;5.18;1.50;;;4.40;99.90;;;;;;5339884;26;20016;-79
2024/04/25 04:37:17;;;;;;;8.20;1.80;;;4.40;99.90;;;;;;5338368;26;20008;-79
2024/04/25 04:39:43;;;;;;;5.15;1.90;;;4.40;99.90;;;;;;5337763;26;20013;-80
2024/04/25 04:42:09;;;;;;;8.65;1.95;;;4.40;99.90;;;;;;5328532;26;20009;-79
2024/04/25 04:44:35;;;;;;;13.82;2.28;;;4.40;99.90;;;;;;5324502;26;20037;-79
2024/04/25 04:47:01;;;;;;;9.57;2.30;;;4.40;99.90;;;;;;5319018;26;20019;-79
2024/04/25 04:49:27;;;;;;;8.88;2.00;;;4.40;99.90;;;;;;5334419;26;20399;-79
2024/04/25 04:51:53;;;;;;;6.82;1.85;;;4.40;99.90;;;;;;5326018;26;20013;-79
2024/04/25 04:54:19;;;;;;;7.93;2.10;;;4.50;99.90;;;;;;5336820;26;20546;-79
2024/04/25 04:56:46;;;;;;;7.75;2.33;;;4.50;99.90;;;;;;5328406;26;20988;-79
2024/04/25 04:59:12;;;;;;;7.10;1.92;;;4.50;99.90;;;;;;5333146;26;20016;-79
2024/04/25 05:01:38;;;;;;;10.23;2.45;;;4.50;99.90;;;;;;5329241;26;20087;-79
2024/04/25 05:04:04;;;;;;;9.25;2.15;;;4.60;99.90;;;;;;5329767;26;20351;-79
2024/04/25 05:06:30;;;;;;;10.63;2.97;;;4.60;99.90;;;;;;5333196;26;20025;-79
2024/04/25 05:08:56;;;;;;;8.02;2.60;;;4.60;99.90;;;;;;5334442;26;20424;-78
2024/04/25 05:11:21;;;;;;;10.10;3.13;;;4.60;99.90;;;;;;5338018;26;20452;-79
2024/04/25 05:13:47;;;;;;;7.30;2.10;;;4.60;99.90;;;;;;5332307;26;20001;-79
2024/04/25 05:16:13;;;;;;;9.63;2.72;;;4.60;99.90;;;;;;5335794;26;20346;-78
2024/04/25 05:18:39;;;;;;;6.82;2.45;;;4.70;99.90;;;;;;5330402;26;20005;-79
2024/04/25 05:21:06;;;;;;;9.38;2.50;;;4.70;99.90;;;;;;5335161;26;20049;-79
2024/04/25 05:23:33;;;;;;;9.80;2.70;;;4.70;99.90;;;;;;5331735;26;20016;-79
2024/04/25 05:25:59;;;;;;;8.43;2.78;;;4.70;99.90;;;;;;5331288;26;20372;-81
2024/04/25 05:28:24;;;;;;;5.43;2.40;;;4.80;99.90;;;;;;5334020;26;20023;-82
2024/04/25 05:30:50;;;;;;;10.48;2.80;;;4.80;99.90;;;;;;5331153;26;20009;-81
2024/04/25 05:33:16;;;;;;;8.80;2.60;;;4.90;99.90;;;;;;5337063;26;20019;-81
2024/04/25 05:35:43;;;;;;;10.77;2.70;;;4.90;99.90;;;;;;5325054;26;20016;-81
2024/04/25 05:38:09;;;;;;;11.68;2.75;;;4.90;99.90;;;;;;5333332;26;20005;-81
2024/04/25 05:40:35;;;;;;;9.55;2.50;;;5.00;99.90;;;;;;5331492;26;20031;-83
2024/04/25 05:43:00;;;;;;;8.75;2.65;;;5.00;99.90;;;;;;5333257;26;20001;-81
2024/04/25 05:45:26;;;;;;;9.15;2.65;;;5.10;99.90;;;;;;5328467;26;20027;-81
2024/04/25 05:47:52;;;;;;;6.38;2.38;;;5.10;99.90;;;;;;5336352;26;20008;-81
2024/04/25 05:50:18;;;;;;;8.88;2.60;;;5.10;99.90;;;;;;5327135;26;20013;-81
2024/04/25 05:52:44;;;;;;;9.48;2.53;;;5.30;99.90;;;;;;5332897;26;20023;-81
2024/04/25 05:55:10;;;;;;;9.85;2.78;;;5.30;99.90;;;;;;5333760;26;20020;-82
2024/04/25 05:57:35;;;;;;;9.40;2.92;;;5.40;99.90;;;;;;5336692;26;20372;-81
2024/04/25 06:00:02;;;;;;;9.23;2.63;;;5.40;99.90;;;;;;5331108;26;20015;-81
2024/04/25 06:02:27;;;;;;;7.15;2.17;;;5.40;99.90;;;;;;5334764;26;20016;-81
2024/04/25 06:04:53;;;;;;;7.70;2.30;;;5.40;99.90;;;;;;5331341;26;20368;-82
2024/04/25 06:07:20;;;;;;;7.45;2.55;;;5.40;99.90;;;;;;5333710;26;20021;-82
2024/04/25 06:09:46;;;;;;;9.52;2.67;;;5.40;99.90;;;;;;5335964;26;20032;-81
2024/04/25 06:12:13;;;;;;;9.98;2.20;;;5.50;99.90;;;;;;5336891;26;20005;-81
2024/04/25 06:14:40;;;;;;;11.02;2.65;;;5.50;99.90;;;;;;5334885;26;20074;-81
2024/04/25 06:17:07;;;;;;;11.75;2.55;;;5.50;99.90;;;;;;5336944;26;19997;-82
2024/04/25 06:19:34;;;;;;;7.63;2.30;;;5.60;99.90;;;;;;5332106;26;20021;-82
2024/04/25 06:21:59;;;;;;;7.90;2.40;;;5.60;99.90;;;;;;5333118;26;20019;-82
2024/04/25 06:24:26;;;;;;;12.13;2.55;;;5.60;99.90;;;;;;5334861;26;20016;-82
2024/04/25 06:26:52;;;;;;;7.68;2.17;;;5.60;99.90;;;;;;5331779;26;20009;-82
2024/04/25 06:29:18;;;;;;;11.45;2.47;;;5.70;99.90;;;;;;5332484;26;20100;-82
2024/04/25 06:31:45;;;;;;;7.28;1.88;;;5.80;99.90;;;;;;5331392;26;20005;-82
2024/04/25 06:34:11;;;;;;;5.35;2.05;;;5.80;99.90;;;;;;5328681;26;20048;-82
2024/04/25 06:36:37;;;;;;;8.88;2.65;;;5.80;99.90;;;;;;5337023;26;20021;-82
2024/04/25 06:39:03;;;;;;;10.52;2.85;;;5.90;99.90;;;;;;5334256;26;20456;-82
2024/04/25 06:41:29;;;;;;;10.27;2.28;;;5.90;99.90;;;;;;5334472;26;20009;-82
2024/04/25 06:43:56;;;;;;;7.25;2.25;;;6.00;99.90;;;;;;5332532;26;21023;-82
2024/04/25 06:46:22;;;;;;;8.75;2.28;;;6.00;99.90;;;;;;5333050;26;20011;-83
2024/04/25 06:48:48;;;;;;;8.95;2.38;;;6.00;99.90;;;;;;5331390;26;20020;-82
2024/04/25 06:51:18;;;;;;;7.55;2.42;;;6.10;99.90;;;;;;5333965;26;20009;-82
2024/04/25 06:53:44;;;;;;;11.80;2.67;;;6.10;99.90;;;;;;5333931;26;20094;-83
2024/04/25 06:56:10;;;;;;;10.38;2.30;;;6.10;99.90;;;;;;5334360;26;20024;-82
2024/04/25 06:58:36;;;;;;;9.70;2.30;;;6.10;99.90;;;;;;5333183;26;20001;-82
2024/04/25 07:01:02;;;;;;;10.80;2.15;;;6.20;99.90;;;;;;5330450;26;20458;-82
2024/04/25 07:03:28;;;;;;;9.65;2.65;;;6.20;99.90;;;;;;5337441;26;20019;-83
2024/04/25 07:05:54;;;;;;;9.10;2.22;;;6.30;99.90;;;;;;5333096;26;20009;-83
2024/04/25 07:08:22;;;;;;;7.00;2.38;;;6.30;99.90;;;;;;5337098;26;20036;-82
2024/04/25 07:10:51;;;;;;;8.68;2.53;;;6.30;99.90;;;;;;5327682;26;20020;-83
2024/04/25 07:13:18;;;;;;;7.15;2.13;;;6.40;99.90;;;;;;5345754;26;20016;-83
2024/04/25 07:15:43;;;;;;;8.45;2.83;;;6.50;99.90;;;;;;5331519;26;20012;-83
2024/04/25 07:18:14;;;;;;;9.43;2.20;;;6.60;99.90;;;;;;5331634;26;19997;-82
2024/04/25 07:20:41;;;;;;;8.68;2.10;;;6.60;99.90;;;;;;5331561;26;20009;-83
2024/04/25 07:23:06;;;;;;;9.85;2.50;;;6.60;99.90;;;;;;5299896;26;19997;-83
2024/04/25 07:25:33;;;;;;;8.32;2.50;;;6.70;99.90;;;;;;5333325;26;20074;-82
2024/04/25 07:27:59;;;;;;;8.68;2.95;;;6.70;99.90;;;;;;5329700;26;20656;-83
2024/04/25 07:30:25;;;;;;;13.32;2.15;;;6.80;99.90;;;;;;5334324;26;20009;-82
2024/04/25 07:32:51;;;;;;;6.80;2.25;;;6.90;99.90;;;;;;5327972;26;20016;-82
2024/04/25 07:35:20;;;;;;;8.73;2.60;;;6.90;99.90;;;;;;5328405;26;20013;-82
2024/04/25 07:37:46;;;;;;;8.45;2.30;;;7.10;99.90;;;;;;5333783;26;20023;-81
2024/04/25 07:40:12;;;;;;;10.77;2.60;;;7.20;99.90;;;;;;5330601;26;20016;-82
2024/04/25 07:42:38;;;;;;;8.55;2.22;;;7.30;99.90;;;;;;5334211;26;20005;-82
2024/04/25 07:45:04;;;;;;;10.68;2.30;;;7.40;99.90;;;;;;5390867;26;20013;-83
2024/04/25 07:47:30;;;;;;;7.43;2.10;;;7.40;99.90;;;;;;5336488;26;20023;-82
2024/04/25 07:49:57;;;;;;;9.07;2.83;;;7.60;99.90;;;;;;5333720;26;21203;-82
2024/04/25 07:52:23;;;;;;;6.88;1.77;;;7.50;99.90;;;;;;5332640;26;20040;-82
2024/04/25 07:54:49;;;;;;;6.45;1.80;;;7.50;99.90;;;;;;5332599;26;20444;-83
2024/04/25 07:57:15;;;;;;;7.90;2.35;;;7.70;99.90;;;;;;5337580;26;20403;-83
2024/04/25 07:59:41;;;;;;;7.65;1.83;;;7.80;99.90;;;;;;5333966;26;20907;-83
2024/04/25 08:02:07;;;;;;;8.70;1.80;;;7.90;99.90;;;;;;5338839;26;20008;-83
2024/04/25 08:04:33;;;;;;;10.52;2.25;;;8.00;99.90;;;;;;5330185;26;20011;-82
2024/04/25 08:06:59;;;;;;;12.20;2.25;;;8.10;99.90;;;;;;5334616;26;20058;-81
2024/04/25 08:09:25;;;;;;;10.18;2.05;;;8.20;99.90;;;;;;5328298;26;20009;-82
2024/04/25 08:11:52;;;;;;;4.75;1.88;;;8.30;99.90;;;;;;5339944;26;20016;-82
2024/04/25 08:14:20;;;;;;;4.72;1.55;;;8.40;99.90;;;;;;5335541;26;20016;-83
2024/04/25 08:16:47;;;;;;;6.28;2.03;;;8.50;99.90;;;;;;5338128;26;20013;-82
2024/04/25 08:19:15;;;;;;;6.80;1.48;;;8.50;99.90;;;;;;5331568;26;20017;-82
2024/04/25 08:21:41;;;;;;;7.82;2.10;;;8.70;99.90;;;;;;5337904;26;20979;-82
2024/04/25 08:24:07;;;;;;;5.88;1.52;;;8.70;99.90;;;;;;5333827;26;20005;-82
2024/04/25 08:26:34;;;;;;;6.63;1.85;;;8.80;99.90;;;;;;5339565;26;20079;-82
2024/04/25 08:29:00;;;;;;;10.77;1.52;;;8.80;99.90;;;;;;5335414;26;20001;-82
2024/04/25 08:31:26;;;;;;;6.65;1.88;;;8.90;99.90;;;;;;5334230;26;20500;-82
2024/04/25 08:33:52;;;;;;;10.02;1.83;;;9.00;99.90;;;;;;5332067;26;20078;-82
2024/04/25 08:36:18;;;;;;;6.00;1.77;;;9.00;99.90;;;;;;5338721;26;20494;-83
2024/04/25 08:38:44;;;;;;;7.65;2.15;;;9.00;99.90;;;;;;5334860;26;20012;-82
2024/04/25 08:41:10;;;;;;;14.20;2.42;;;9.00;99.90;;;;;;5337557;26;20017;-82
2024/04/25 08:43:42;;;;;;;6.85;1.95;;;9.10;99.90;;;;;;5334643;26;20016;-83
2024/04/25 08:46:15;;;;;;;7.13;2.53;;;9.10;99.90;;;;;;5330004;26;20726;-82
2024/04/25 08:48:42;;;;;;;9.63;1.85;;;9.20;99.90;;;;;;5337270;26;20049;-83
2024/04/25 08:51:11;;;;;;;7.18;1.88;;;9.20;99.90;;;;;;5334641;26;20415;-82
2024/04/25 08:53:40;;;;;;;5.88;1.60;;;9.20;99.90;;;;;;5337526;26;20001;-83
2024/04/25 08:56:11;;;;;;;8.27;1.83;;;9.30;99.90;;;;;;5333908;26;20019;-82
2024/04/25 08:58:37;;;;;;;5.70;1.58;;;9.40;99.90;;;;;;5338256;26;20020;-82
2024/04/25 09:01:03;;;;;;;6.10;1.50;;;9.60;99.90;;;;;;5331513;26;20009;-83
2024/04/25 09:03:29;;;;;;;7.80;1.80;;;9.60;99.90;;;;;;5334436;26;20148;-83
2024/04/25 09:05:55;;;;;;;8.40;1.40;;;9.80;99.90;;;;;;5334868;26;20032;-83
2024/04/25 09:08:21;;;;;;;7.60;2.33;;;9.80;99.90;;;;;;5337902;26;20086;-83
2024/04/25 09:10:52;;;;;;;8.75;2.38;;;9.80;99.90;;;;;;5336590;26;20005;-83
2024/04/25 09:13:21;;;;;;;8.55;2.05;;;9.70;99.90;;;;;;5336289;26;20020;-82
2024/04/25 09:15:50;;;;;;;7.63;1.77;;;9.60;99.90;;;;;;5329276;26;20017;-83
2024/04/25 09:18:16;;;;;;;8.30;2.20;;;9.50;99.90;;;;;;5335263;26;19997;-83
2024/04/25 09:20:42;;;;;;;6.28;2.10;;;9.40;99.90;;;;;;5333402;26;20044;-83
2024/04/25 09:23:08;;;;;;;6.78;1.95;;;9.40;99.90;;;;;;5336014;26;20012;-82
2024/04/25 09:25:34;;;;;;;9.02;2.53;;;9.30;99.90;;;;;;5335974;26;20009;-83
2024/04/25 09:28:02;;;;;;;7.32;2.08;;;9.30;99.90;;;;;;5332935;26;20031;-83
2024/04/25 09:30:30;;;;;;;7.25;2.08;;;9.30;99.90;;;;;;5328051;26;19997;-83
2024/04/25 09:32:56;;;;;;;9.43;2.08;;;9.40;99.90;;;;;;5328686;26;20020;-83
2024/04/25 09:35:22;;;;;;;5.72;1.80;;;9.60;99.90;;;;;;5335530;26;20385;-82
2024/04/25 09:37:48;;;;;;;5.55;1.73;;;9.60;99.90;;;;;;5335158;26;20009;-82
2024/04/25 09:40:14;;;;;;;4.95;1.20;;;9.50;99.90;;;;;;5336474;26;20008;-82
2024/04/25 09:42:40;;;;;;;5.03;1.80;;;9.30;99.90;;;;;;5364572;26;20016;-84
2024/04/25 09:45:09;;;;;;;6.38;1.83;;;9.10;99.90;;;;;;5334027;26;20468;-83
2024/04/25 09:47:49;;;;;;;5.40;1.80;;;8.90;99.90;;;;;;5335479;26;20035;-82
2024/04/25 09:50:25;;;;;;;4.75;1.60;;;8.70;99.90;;;;;;5329326;26;20025;-82
2024/04/25 09:52:56;;;;;;;5.07;1.63;;;8.50;99.90;;;;;;5338178;26;20009;-82
2024/04/25 09:55:32;;;;;;;5.80;1.60;;;8.30;99.90;;;;;;5390216;26;20001;-82
2024/04/25 09:58:04;;;;;;;6.00;2.05;;;8.10;99.90;;;;;;5335956;26;20010;-81
2024/04/25 10:00:32;;;;;;;4.88;1.52;;;7.90;99.90;;;;;;5331891;26;20016;-82
2024/04/25 10:02:59;;;;;;;4.47;1.15;;;7.80;99.90;;;;;;5333595;26;20019;-82
2024/04/25 10:05:27;;;;;;;4.60;1.63;;;7.60;99.90;;;;;;5335418;26;20076;-83
2024/04/25 10:07:53;;;;;;;4.05;1.40;;;7.60;99.90;;;;;;5327420;26;20009;-82
2024/04/25 10:10:19;;;;;;;3.78;1.50;;;7.60;99.90;;;;;;5335683;26;20087;-82
2024/04/25 10:12:52;;;;;;;5.85;1.50;;;7.60;99.90;;;;;;5331133;26;20406;-83
2024/04/25 10:15:31;;;;;;;5.93;1.90;;;7.70;99.90;;;;;;5329548;26;20009;-83
2024/04/25 10:17:57;;;;;;;5.63;1.50;;;7.80;99.90;;;;;;5336775;26;20082;-82
2024/04/25 10:20:24;;;;;;;5.60;1.67;;;8.00;99.90;;;;;;5329679;26;20355;-83
2024/04/25 10:23:00;;;;;;;7.53;1.95;;;8.00;99.90;;;;;;5338168;26;19996;-83
2024/04/25 10:25:27;;;;;;;4.57;1.90;;;8.20;99.90;;;;;;5329189;26;20230;-83
2024/04/25 10:28:08;;;;;;;6.18;1.90;;;8.20;99.90;;;;;;5336584;26;19997;-83
2024/04/25 10:30:34;;;;;;;7.30;1.95;;;8.30;99.90;;;;;;5337096;26;20468;-83
2024/04/25 10:33:01;;;;;;;10.32;2.03;;;8.40;99.90;;;;;;5331746;26;20023;-83
2024/04/25 10:35:40;;;;;;;8.32;2.13;;;8.60;99.90;;;;;;5335477;26;20028;-82
2024/04/25 10:38:06;;;;;;;7.05;2.42;;;8.70;99.90;;;;;;5335089;26;20439;-83
2024/04/25 10:40:32;;;;;;;8.25;2.33;;;8.90;99.90;;;;;;5335055;26;20009;-82
2024/04/25 10:43:01;;;;;;;5.95;2.38;;;8.90;99.90;;;;;;5331360;26;20032;-83
2024/04/25 10:45:28;;;;;;;8.30;3.00;;;9.00;99.90;;;;;;5323903;26;19997;-83
2024/04/25 10:47:55;;;;;;;8.60;2.63;;;9.20;99.90;;;;;;5331531;26;20016;-83
2024/04/25 10:50:21;;;;;;;8.63;2.40;;;9.40;99.90;;;;;;5330933;26;20844;-83
2024/04/25 10:52:49;;;;;;;5.88;2.42;;;9.50;99.90;;;;;;5334469;26;20020;-83
2024/04/25 10:55:15;;;;;;;7.85;2.53;;;9.70;99.90;;;;;;5337929;26;20048;-83
2024/04/25 10:57:41;;;;;;;5.97;2.20;;;9.70;99.90;;;;;;5333558;26;20040;-82
2024/04/25 11:00:07;;;;;;;7.13;2.30;;;9.60;99.90;;;;;;5335628;26;20051;-83
2024/04/25 11:02:37;;;;;;;8.05;2.50;;;9.50;99.90;;;;;;5332736;26;20001;-83
2024/04/25 11:05:04;;;;;;;7.68;2.38;;;9.40;99.90;;;;;;5335536;26;20008;-83
2024/04/25 11:07:29;;;;;;;9.43;2.58;;;9.30;99.90;;;;;;5333945;26;20126;-82
2024/04/25 11:09:57;;;;;;;9.60;2.85;;;9.20;99.90;;;;;;5335360;26;20764;-84
2024/04/25 11:12:24;;;;;;;8.95;2.22;;;9.20;99.90;;;;;;5330201;26;20722;-83
2024/04/25 11:14:51;;;;;;;6.50;2.72;;;9.20;99.90;;;;;;5334968;26;20526;-83
2024/04/25 11:17:17;;;;;;;5.88;2.17;;;9.10;99.90;;;;;;5332937;26;20078;-83
2024/04/25 11:19:52;;;;;;;8.63;2.50;;;9.00;99.90;;;;;;5332829;26;20041;-82
2024/04/25 11:22:18;;;;;;;9.82;3.03;;;9.00;99.90;;;;;;5391826;26;20005;-82
2024/04/25 11:24:44;;;;;;;6.65;2.38;;;9.00;99.90;;;;;;5332899;26;20009;-82
2024/04/25 11:27:11;;;;;;;7.45;2.88;;;8.90;99.90;;;;;;5333793;26;19997;-83
2024/04/25 11:29:38;;;;;;;9.82;3.08;;;8.90;99.90;;;;;;5330947;26;20009;-82
2024/04/25 11:32:05;;;;;;;7.82;2.25;;;8.90;99.90;;;;;;5325701;26;20012;-84
2024/04/25 11:34:33;;;;;;;7.57;2.63;;;8.90;99.90;;;;;;5327438;26;20875;-83
2024/04/25 11:37:01;;;;;;;7.07;2.30;;;8.80;99.90;;;;;;5333208;26;20031;-83
2024/04/25 11:39:32;;;;;;;6.55;2.22;;;8.70;99.90;;;;;;5334713;26;20024;-83
2024/04/25 11:42:02;;;;;;;3.85;2.25;;;8.60;99.90;;;;;;5335008;26;20015;-82
2024/04/25 11:44:30;;;;;;;6.72;2.47;;;8.60;99.90;;;;;;5333683;26;20017;-83
2024/04/25 11:46:58;;;;;;;7.00;2.63;;;8.60;99.90;;;;;;5382687;26;20008;-82
2024/04/25 11:49:24;;;;;;;5.25;2.08;;;8.70;99.90;;;;;;5334565;26;20040;-83
2024/04/25 11:51:50;;;;;;;4.75;2.13;;;8.80;99.90;;;;;;5330697;26;20024;-83
2024/04/25 11:54:16;;;;;;;5.97;2.20;;;8.80;99.90;;;;;;5333141;26;20550;-84
2024/04/25 11:56:42;;;;;;;7.20;2.40;;;8.90;99.90;;;;;;5335741;26;20027;-83
2024/04/25 11:59:08;;;;;;;7.38;2.67;;;9.00;99.90;;;;;;5335344;26;20008;-84
2024/04/25 12:01:34;;;;;;;6.35;2.50;;;9.00;99.90;;;;;;5331972;26;19997;-84
2024/04/25 12:04:00;;;;;;;4.60;2.28;;;9.00;99.90;;;;;;5332057;26;20020;-82
2024/04/25 12:06:27;;;;;;;7.15;2.65;;;9.00;99.90;;;;;;5335060;26;20005;-83
2024/04/25 12:08:53;;;;;;;4.43;2.05;;;8.90;99.90;;;;;;5327507;26;20001;-84
2024/04/25 12:11:19;;;;;;;4.28;1.95;;;8.80;99.90;;;;;;5332845;26;20023;-84
2024/04/25 12:13:46;;;;;;;6.50;1.40;;;8.80;99.90;;;;;;5334037;26;20009;-83
2024/04/25 12:16:12;;;;;;;4.32;1.35;;;8.60;99.90;;;;;;5333683;26;20059;-83
2024/04/25 12:18:38;;;;;;;4.28;1.23;;;8.50;99.90;;;;;;5330198;26;20005;-84
2024/04/25 12:21:05;;;;;;;3.80;1.10;;;8.40;99.90;;;;;;5334355;26;20020;-84
2024/04/25 12:23:34;;;;;;;2.83;1.25;;;8.40;99.90;;;;;;5334763;26;20001;-83
2024/04/25 12:26:01;;;;;;;4.70;1.20;;;8.30;99.90;;;;;;5332659;26;20337;-83
2024/04/25 12:28:27;;;;;;;3.45;1.35;;;8.30;99.90;;;;;;5329765;26;20028;-83
2024/04/25 12:30:53;;;;;;;5.28;1.00;;;8.40;99.90;;;;;;5306811;26;20021;-82
2024/04/25 12:33:20;;;;;;;4.93;1.60;;;8.50;99.90;;;;;;5336343;26;20004;-83
2024/04/25 12:35:46;;;;;;;3.35;1.30;;;8.60;99.90;;;;;;5334558;26;20008;-83
2024/04/25 12:38:12;;;;;;;6.50;1.55;;;8.70;99.90;;;;;;5338506;26;20009;-83
2024/04/25 12:40:38;;;;;;;4.20;1.80;;;8.80;99.90;;;;;;5336694;26;20025;-83
2024/04/25 12:43:04;;;;;;;3.80;1.63;;;8.90;99.90;;;;;;5339109;26;20355;-83
2024/04/25 12:45:33;;;;;;;3.38;1.13;;;9.10;99.90;;;;;;5331686;26;19997;-83
2024/04/25 12:48:03;;;;;;;3.33;1.17;;;9.20;99.90;;;;;;5338545;26;20017;-83
2024/04/25 12:50:29;;;;;;;3.65;1.42;;;9.30;99.90;;;;;;5334430;26;20009;-83
2024/04/25 12:52:56;;;;;;;4.72;1.50;;;9.40;99.90;;;;;;5334685;26;20019;-83
2024/04/25 12:55:24;;;;;;;4.85;1.60;;;9.50;99.90;;;;;;5338681;26;20035;-83
2024/04/25 12:57:54;;;;;;;5.03;1.88;;;9.50;99.90;;;;;;5335583;26;20013;-82
2024/04/25 13:00:22;;;;;;;5.00;1.77;;;9.50;99.90;;;;;;5334059;26;20009;-82
2024/04/25 13:02:50;;;;;;;7.43;2.38;;;9.40;99.90;;;;;;5337591;26;20005;-83